createdAt,value
2023-11-28T00:02:08.705Z,16.15
2023-11-28T00:04:35.493Z,16.17
2023-11-28T00:07:02.119Z,14.85
2023-11-28T00:09:28.728Z,16.70
2023-11-28T00:11:55.368Z,16.88
2023-11-28T00:14:21.852Z,15.68
2023-11-28T00:16:48.420Z,17.35
2023-11-28T00:19:15.252Z,17.20
2023-11-28T00:21:41.881Z,18.35
2023-11-28T00:24:08.698Z,17.70
2023-11-28T00:26:36.458Z,18.05
2023-11-28T00:29:03.384Z,18.58
2023-11-28T00:31:30.086Z,18.20
2023-11-28T00:33:56.799Z,18.83
2023-11-28T00:36:23.397Z,18.92
2023-11-28T00:38:49.856Z,18.70
2023-11-28T00:41:16.349Z,18.10
2023-11-28T00:43:42.944Z,17.80
2023-11-28T00:46:09.549Z,18.60
2023-11-28T00:48:36.160Z,20.02
2023-11-28T00:51:02.757Z,20.00
2023-11-28T00:53:29.276Z,19.15
2023-11-28T00:55:55.901Z,18.77
2023-11-28T00:58:22.477Z,18.83
2023-11-28T01:00:49.039Z,16.90
2023-11-28T01:03:15.643Z,16.42
2023-11-28T01:05:42.240Z,14.95
2023-11-28T01:08:08.760Z,12.68
2023-11-28T01:10:35.231Z,10.45
2023-11-28T01:13:01.837Z,11.13
2023-11-28T01:15:28.428Z,8.70
2023-11-28T01:17:55.067Z,8.80
2023-11-28T01:20:21.729Z,8.77
2023-11-28T01:22:48.334Z,8.32
2023-11-28T01:25:14.937Z,8.68
2023-11-28T01:27:41.761Z,7.72
2023-11-28T01:30:08.812Z,7.18
2023-11-28T01:32:35.542Z,7.07
2023-11-28T01:35:02.276Z,7.30
2023-11-28T01:37:28.884Z,6.55
2023-11-28T01:39:55.458Z,6.05
2023-11-28T01:42:22.009Z,5.47
2023-11-28T01:44:48.592Z,4.70
2023-11-28T01:47:15.596Z,4.57
2023-11-28T01:49:42.329Z,4.38
2023-11-28T01:52:09.901Z,3.90
2023-11-28T01:54:36.904Z,3.53
2023-11-28T01:57:03.766Z,3.22
2023-11-28T01:59:32.420Z,4.00
2023-11-28T02:01:59.169Z,3.65
2023-11-28T02:04:26.389Z,2.65
2023-11-28T02:06:53.114Z,2.80
2023-11-28T02:09:19.614Z,2.95
2023-11-28T02:11:46.129Z,2.78
2023-11-28T02:14:12.697Z,2.97
2023-11-28T02:16:39.384Z,2.92
2023-11-28T02:19:05.984Z,3.60
2023-11-28T02:21:32.888Z,2.50
2023-11-28T02:23:59.709Z,2.67
2023-11-28T02:26:28.060Z,5.00
2023-11-28T02:28:55.917Z,5.60
2023-11-28T02:31:22.990Z,6.60
2023-11-28T02:33:49.955Z,6.78
2023-11-28T02:36:16.648Z,6.90
2023-11-28T02:38:43.230Z,6.60
2023-11-28T02:41:09.807Z,7.53
2023-11-28T02:43:36.463Z,7.75
2023-11-28T02:46:03.187Z,8.25
2023-11-28T02:48:30.042Z,6.70
2023-11-28T02:50:56.664Z,6.93
2023-11-28T02:53:23.250Z,8.43
2023-11-28T02:55:49.944Z,8.15
2023-11-28T02:58:16.531Z,7.82
2023-11-28T03:00:43.116Z,7.78
2023-11-28T03:03:09.938Z,7.93
2023-11-28T03:05:36.522Z,8.75
2023-11-28T03:08:03.214Z,9.05
2023-11-28T03:10:29.853Z,9.10
2023-11-28T03:12:56.460Z,9.88
2023-11-28T03:15:23.000Z,10.15
2023-11-28T03:17:49.671Z,10.68
2023-11-28T03:20:16.392Z,11.45
2023-11-28T03:22:43.003Z,15.10
2023-11-28T03:25:10.674Z,19.05
2023-11-28T03:27:37.418Z,15.45
2023-11-28T03:30:04.608Z,13.25
2023-11-28T03:32:31.460Z,11.77
2023-11-28T03:34:58.145Z,11.68
2023-11-28T03:37:24.744Z,12.52
2023-11-28T03:39:51.408Z,12.57
2023-11-28T03:42:19.254Z,13.63
2023-11-28T03:44:45.773Z,13.10
2023-11-28T03:47:12.561Z,13.98
2023-11-28T03:49:39.204Z,11.07
2023-11-28T03:52:06.205Z,11.98
2023-11-28T03:54:32.772Z,11.90
2023-11-28T03:56:59.263Z,10.45
2023-11-28T03:59:25.804Z,10.02
2023-11-28T04:01:52.442Z,11.35
2023-11-28T04:04:19.221Z,10.68
2023-11-28T04:06:45.842Z,10.30
2023-11-28T04:09:12.588Z,10.45
2023-11-28T04:11:39.148Z,9.23
2023-11-28T04:14:05.860Z,10.60
2023-11-28T04:16:32.541Z,9.35
2023-11-28T04:18:59.118Z,9.95
2023-11-28T04:21:25.711Z,10.55
2023-11-28T04:23:52.219Z,9.98
2023-11-28T04:26:18.789Z,9.43
2023-11-28T04:28:45.372Z,9.32
2023-11-28T04:31:21.834Z,10.48
2023-11-28T04:33:48.751Z,10.52
2023-11-28T04:36:15.752Z,11.25
2023-11-28T04:38:43.271Z,10.20
2023-11-28T04:41:12.014Z,10.82
2023-11-28T04:43:38.778Z,10.88
2023-11-28T04:46:05.712Z,11.38
2023-11-28T04:48:32.479Z,11.30
2023-11-28T04:50:59.037Z,12.05
2023-11-28T04:53:25.572Z,12.80
2023-11-28T04:55:52.247Z,11.93
2023-11-28T04:58:18.833Z,14.55
2023-11-28T05:00:45.430Z,14.80
2023-11-28T05:03:12.253Z,15.75
2023-11-28T05:05:39.378Z,16.00
2023-11-28T05:08:06.169Z,15.45
2023-11-28T05:10:32.869Z,15.20
2023-11-28T05:12:59.397Z,17.13
2023-11-28T05:15:25.981Z,16.70
2023-11-28T05:17:52.644Z,16.88
2023-11-28T05:20:19.378Z,17.13
2023-11-28T05:22:46.022Z,17.25
2023-11-28T05:25:12.670Z,19.58
2023-11-28T05:27:39.225Z,19.65
2023-11-28T05:30:07.416Z,20.52
2023-11-28T05:32:34.063Z,21.95
2023-11-28T05:35:00.775Z,20.65
2023-11-28T05:37:27.356Z,23.50
2023-11-28T05:39:53.838Z,23.20
2023-11-28T05:42:20.411Z,25.10
2023-11-28T05:44:46.963Z,24.08
2023-11-28T05:47:13.608Z,24.92
2023-11-28T05:49:40.251Z,23.00
2023-11-28T05:52:06.879Z,29.45
2023-11-28T05:54:33.408Z,28.15
2023-11-28T05:57:00.022Z,26.13
2023-11-28T05:59:26.545Z,24.30
2023-11-28T06:02:01.213Z,26.98
2023-11-28T06:04:28.760Z,24.70
2023-11-28T06:06:55.369Z,24.02
2023-11-28T06:09:21.967Z,22.13
2023-11-28T06:11:48.510Z,21.08
2023-11-28T06:14:15.098Z,20.30
2023-11-28T06:16:41.665Z,21.30
2023-11-28T06:19:08.246Z,22.08
2023-11-28T06:21:34.824Z,21.60
2023-11-28T06:24:01.325Z,22.08
2023-11-28T06:26:27.853Z,21.38
2023-11-28T06:28:54.432Z,22.23
2023-11-28T06:31:20.990Z,20.35
2023-11-28T06:33:47.801Z,21.30
2023-11-28T06:36:14.355Z,20.77
2023-11-28T06:38:40.864Z,21.05
2023-11-28T06:41:07.567Z,19.98
2023-11-28T06:43:34.600Z,20.80
2023-11-28T06:46:01.238Z,21.08
2023-11-28T06:48:27.947Z,21.75
2023-11-28T06:50:54.555Z,20.00
2023-11-28T06:53:20.996Z,20.80
2023-11-28T06:55:47.594Z,21.85
2023-11-28T06:58:14.235Z,20.38
2023-11-28T07:00:40.797Z,20.58
2023-11-28T07:03:07.400Z,19.80
2023-11-28T07:05:33.932Z,21.50
2023-11-28T07:08:00.538Z,19.05
2023-11-28T07:10:27.075Z,18.98
2023-11-28T07:12:53.590Z,20.05
2023-11-28T07:15:20.286Z,20.60
2023-11-28T07:17:46.833Z,20.77
2023-11-28T07:20:13.462Z,20.83
2023-11-28T07:22:40.134Z,19.83
2023-11-28T07:25:07.010Z,19.75
2023-11-28T07:27:33.699Z,19.48
2023-11-28T07:30:00.366Z,19.60
2023-11-28T07:32:27.088Z,18.80
2023-11-28T07:34:53.693Z,18.48
2023-11-28T07:37:20.266Z,19.25
2023-11-28T07:39:46.798Z,18.63
2023-11-28T07:42:13.354Z,18.80
2023-11-28T07:44:39.942Z,17.60
2023-11-28T07:47:06.516Z,18.90
2023-11-28T07:49:33.096Z,18.15
2023-11-28T07:51:59.641Z,18.58
2023-11-28T07:54:26.252Z,17.92
2023-11-28T07:56:52.855Z,19.27
2023-11-28T07:59:19.531Z,18.48
2023-11-28T08:01:46.223Z,18.90
2023-11-28T08:04:12.953Z,16.63
2023-11-28T08:06:39.605Z,16.45
2023-11-28T08:09:06.102Z,16.17
2023-11-28T08:11:32.680Z,14.88
2023-11-28T08:13:59.340Z,15.43
2023-11-28T08:16:25.984Z,14.50
2023-11-28T08:18:53.315Z,13.93
2023-11-28T08:21:19.856Z,13.80
2023-11-28T08:23:46.601Z,15.45
2023-11-28T08:26:13.290Z,14.05
2023-11-28T08:28:40.010Z,12.70
2023-11-28T08:31:08.592Z,12.77
2023-11-28T08:33:35.311Z,12.73
2023-11-28T08:36:02.053Z,12.40
2023-11-28T08:38:31.166Z,10.85
2023-11-28T08:40:57.719Z,8.95
2023-11-28T08:43:24.456Z,10.02
2023-11-28T08:45:51.046Z,8.73
2023-11-28T08:48:17.634Z,9.25
2023-11-28T08:50:44.247Z,7.88
2023-11-28T08:53:10.926Z,9.00
2023-11-28T08:55:37.542Z,8.38
2023-11-28T08:58:04.090Z,8.35
2023-11-28T09:00:30.628Z,8.48
2023-11-28T09:02:57.420Z,7.45
2023-11-28T09:05:24.122Z,7.50
2023-11-28T09:07:50.819Z,6.82
2023-11-28T09:10:17.526Z,6.68
2023-11-28T09:12:44.058Z,6.57
2023-11-28T09:15:10.954Z,6.65
2023-11-28T09:17:37.596Z,5.90
2023-11-28T09:20:04.725Z,5.22
2023-11-28T09:22:31.392Z,4.70
2023-11-28T09:24:58.064Z,5.57
2023-11-28T09:27:24.619Z,4.65
2023-11-28T09:29:53.494Z,3.95
2023-11-28T09:32:21.284Z,4.55
2023-11-28T09:34:47.980Z,4.20
2023-11-28T09:37:15.064Z,5.03
2023-11-28T09:39:41.688Z,4.13
2023-11-28T09:42:11.871Z,4.88
2023-11-28T09:44:41.440Z,4.57
2023-11-28T09:47:09.384Z,4.07
2023-11-28T09:49:42.955Z,2.92
2023-11-28T09:52:10.954Z,3.80
2023-11-28T09:54:37.749Z,3.60
2023-11-28T09:57:06.457Z,3.60
2023-11-28T09:59:44.860Z,2.65
2023-11-28T10:02:16.216Z,2.50
2023-11-28T10:04:43.499Z,2.38
2023-11-28T10:07:12.587Z,2.25
2023-11-28T10:09:42.596Z,2.10
2023-11-28T10:12:09.541Z,1.90
2023-11-28T10:14:39.799Z,2.20
2023-11-28T10:17:06.431Z,1.95
2023-11-28T10:19:34.052Z,1.77
2023-11-28T10:22:04.107Z,2.15
2023-11-28T10:24:30.675Z,1.63
2023-11-28T10:26:57.345Z,2.30
2023-11-28T10:29:23.888Z,1.92
2023-11-28T10:31:50.532Z,1.80
2023-11-28T10:34:17.132Z,2.13
2023-11-28T10:36:47.786Z,1.40
2023-11-28T10:39:16.161Z,2.00
2023-11-28T10:41:42.856Z,2.40
2023-11-28T10:44:09.663Z,2.15
2023-11-28T10:46:38.627Z,2.22
2023-11-28T10:49:05.441Z,2.22
2023-11-28T10:51:33.337Z,2.10
2023-11-28T10:54:07.432Z,2.08
2023-11-28T10:56:47.126Z,2.17
2023-11-28T10:59:37.853Z,1.77
2023-11-28T11:02:05.988Z,2.10
2023-11-28T11:04:33.516Z,1.60
2023-11-28T11:07:00.666Z,2.13
2023-11-28T11:09:28.255Z,2.45
2023-11-28T11:11:57.089Z,2.13
2023-11-28T11:15:01.460Z,1.80
2023-11-28T11:17:44.422Z,2.30
2023-11-28T11:20:13.967Z,2.30
2023-11-28T11:22:45.488Z,1.75
2023-11-28T11:25:12.136Z,1.95
2023-11-28T11:27:38.785Z,2.17
2023-11-28T11:30:06.233Z,2.33
2023-11-28T11:32:35.706Z,2.20
2023-11-28T11:35:02.879Z,2.28
2023-11-28T11:37:33.970Z,2.20
2023-11-28T11:40:02.244Z,6.50
2023-11-28T11:42:29.693Z,2.45
2023-11-28T11:44:58.288Z,1.40
2023-11-28T11:47:26.758Z,1.40
2023-11-28T11:49:55.706Z,1.30
2023-11-28T11:52:22.984Z,1.30
2023-11-28T11:54:49.604Z,1.48
2023-11-28T11:57:16.182Z,1.40
2023-11-28T11:59:42.856Z,1.50
2023-11-28T12:02:09.753Z,1.33
2023-11-28T12:04:42.359Z,1.23
2023-11-28T12:07:11.267Z,1.77
2023-11-28T12:09:37.930Z,1.10
2023-11-28T12:12:04.654Z,1.50
2023-11-28T12:14:32.271Z,1.48
2023-11-28T12:17:00.073Z,1.65
2023-11-28T12:19:26.645Z,1.52
2023-11-28T12:21:53.242Z,1.38
2023-11-28T12:24:19.759Z,1.85
2023-11-28T12:26:47.071Z,1.30
2023-11-28T12:29:13.738Z,1.50
2023-11-28T12:31:40.647Z,0.88
2023-11-28T12:34:07.535Z,1.30
2023-11-28T12:36:34.392Z,1.13
2023-11-28T12:39:00.998Z,1.88
2023-11-28T12:41:35.511Z,1.05
2023-11-28T12:44:02.249Z,1.30
2023-11-28T12:46:31.874Z,1.65
2023-11-28T12:48:59.013Z,1.23
2023-11-28T12:51:25.615Z,1.73
2023-11-28T12:53:52.155Z,1.42
2023-11-28T12:56:18.781Z,1.30
2023-11-28T12:58:45.329Z,1.30
2023-11-28T13:01:11.896Z,1.17
2023-11-28T13:03:38.620Z,1.10
2023-11-28T13:06:05.458Z,1.48
2023-11-28T13:08:32.030Z,1.38
2023-11-28T13:10:58.638Z,1.20
2023-11-28T13:13:25.269Z,0.90
2023-11-28T13:15:51.906Z,1.42
2023-11-28T13:18:18.571Z,0.90
2023-11-28T13:20:45.234Z,1.02
2023-11-28T13:23:11.949Z,1.10
2023-11-28T13:25:38.587Z,0.98
2023-11-28T13:28:05.322Z,1.63
2023-11-28T13:30:31.944Z,0.77
2023-11-28T13:32:58.557Z,0.93
2023-11-28T13:35:25.163Z,1.30
2023-11-28T13:37:51.887Z,1.60
2023-11-28T13:40:18.403Z,1.02
2023-11-28T13:42:44.953Z,1.33
2023-11-28T13:45:11.513Z,1.05
2023-11-28T13:47:38.162Z,0.82
2023-11-28T13:50:05.037Z,1.08
2023-11-28T13:52:31.639Z,1.02
2023-11-28T13:54:58.254Z,1.13
2023-11-28T13:57:24.856Z,1.10
2023-11-28T13:59:51.482Z,0.98
2023-11-28T14:02:18.096Z,1.10
2023-11-28T14:04:44.571Z,1.20
2023-11-28T14:07:11.073Z,1.10
2023-11-28T14:09:37.633Z,0.80
2023-11-28T14:12:04.420Z,1.58
2023-11-28T14:14:42.810Z,1.20
2023-11-28T14:17:17.006Z,1.00
2023-11-28T14:19:43.589Z,0.80
2023-11-28T14:22:10.324Z,0.75
2023-11-28T14:24:36.855Z,1.17
2023-11-28T14:27:04.590Z,0.80
2023-11-28T14:29:32.542Z,0.70
2023-11-28T14:31:59.082Z,0.85
2023-11-28T14:34:26.430Z,0.98
2023-11-28T14:36:53.036Z,0.80
2023-11-28T14:39:19.699Z,0.80
2023-11-28T14:41:46.201Z,0.98
2023-11-28T14:44:12.801Z,0.90
2023-11-28T14:46:39.468Z,1.35
2023-11-28T14:49:06.022Z,0.90
2023-11-28T14:51:32.528Z,0.82
2023-11-28T14:53:59.207Z,0.82
2023-11-28T14:56:25.811Z,0.70
2023-11-28T14:58:52.401Z,1.05
2023-11-28T15:01:19.971Z,1.20
2023-11-28T15:03:46.606Z,1.05
2023-11-28T15:06:13.319Z,0.80
2023-11-28T15:08:42.968Z,1.17
2023-11-28T15:11:12.031Z,1.20
2023-11-28T15:13:39.600Z,1.08
2023-11-28T15:16:07.093Z,1.10
2023-11-28T15:18:33.755Z,1.33
2023-11-28T15:21:01.211Z,1.20
2023-11-28T15:23:27.862Z,2.95
2023-11-28T15:25:54.463Z,1.50
2023-11-28T15:28:21.013Z,3.38
2023-11-28T15:30:47.636Z,2.13
2023-11-28T15:33:14.432Z,2.42
2023-11-28T15:35:41.193Z,1.88
2023-11-28T15:38:07.825Z,2.00
2023-11-28T15:40:35.768Z,2.55
2023-11-28T15:43:02.626Z,2.13
2023-11-28T15:45:29.217Z,2.83
2023-11-28T15:47:55.804Z,2.85
2023-11-28T15:50:22.376Z,3.20
2023-11-28T15:52:49.004Z,3.53
2023-11-28T15:55:15.725Z,3.05
2023-11-28T15:57:42.269Z,4.35
2023-11-28T16:00:09.203Z,3.85
2023-11-28T16:02:36.005Z,4.35
2023-11-28T16:05:03.098Z,5.53
2023-11-28T16:07:29.748Z,7.90
2023-11-28T16:09:56.312Z,9.63
2023-11-28T16:12:22.967Z,10.00
2023-11-28T16:14:50.815Z,10.48
2023-11-28T16:17:17.756Z,12.30
2023-11-28T16:19:44.607Z,15.07
2023-11-28T16:22:11.129Z,14.77
2023-11-28T16:24:37.632Z,16.63
2023-11-28T16:27:04.397Z,19.33
2023-11-28T16:29:30.950Z,26.75
2023-11-28T16:31:57.512Z,27.30
2023-11-28T16:34:24.036Z,25.83
2023-11-28T16:36:50.607Z,26.02
2023-11-28T16:39:17.211Z,18.38
2023-11-28T16:41:43.734Z,16.00
2023-11-28T16:44:10.371Z,13.65
2023-11-28T16:46:37.712Z,15.52
2023-11-28T16:49:04.777Z,16.98
2023-11-28T16:51:31.360Z,17.65
2023-11-28T16:53:57.931Z,21.02
2023-11-28T16:56:24.935Z,19.98
2023-11-28T16:58:52.172Z,23.38
2023-11-28T17:01:18.881Z,23.85
2023-11-28T17:03:45.593Z,19.05
2023-11-28T17:06:13.409Z,19.95
2023-11-28T17:08:40.774Z,15.55
2023-11-28T17:11:07.377Z,12.23
2023-11-28T17:13:34.041Z,13.85
2023-11-28T17:16:00.549Z,16.58
2023-11-28T17:18:27.124Z,15.52
2023-11-28T17:20:53.634Z,14.68
2023-11-28T17:23:20.190Z,14.68
2023-11-28T17:25:46.750Z,12.93
2023-11-28T17:28:13.353Z,12.02
2023-11-28T17:30:40.021Z,11.18
2023-11-28T17:33:06.609Z,12.13
2023-11-28T17:35:33.227Z,8.65
2023-11-28T17:37:59.810Z,8.93
2023-11-28T17:40:26.351Z,9.00
2023-11-28T17:42:52.812Z,9.38
2023-11-28T17:45:19.348Z,7.75
2023-11-28T17:47:46.099Z,6.68
2023-11-28T17:50:12.748Z,8.02
2023-11-28T17:52:39.337Z,8.43
2023-11-28T17:55:06.594Z,11.63
2023-11-28T17:57:33.195Z,13.68
2023-11-28T18:00:00.009Z,19.40
2023-11-28T18:02:26.808Z,22.33
2023-11-28T18:04:53.591Z,19.17
2023-11-28T18:07:20.121Z,16.05
2023-11-28T18:09:46.623Z,7.95
2023-11-28T18:12:13.197Z,7.57
2023-11-28T18:14:39.757Z,8.27
2023-11-28T18:17:06.464Z,7.72
2023-11-28T18:19:33.181Z,10.40
2023-11-28T18:22:00.275Z,9.63
2023-11-28T18:24:26.845Z,11.27
2023-11-28T18:26:53.521Z,11.38
2023-11-28T18:29:20.103Z,10.85
2023-11-28T18:31:47.104Z,12.95
2023-11-28T18:34:14.054Z,10.82
2023-11-28T18:36:40.837Z,9.07
2023-11-28T18:39:07.577Z,9.15
2023-11-28T18:41:38.414Z,13.30
2023-11-28T18:44:07.175Z,16.07
2023-11-28T18:46:34.470Z,18.30
2023-11-28T18:49:01.317Z,18.17
2023-11-28T18:51:29.221Z,18.23
2023-11-28T18:53:56.845Z,19.42
2023-11-28T18:56:25.215Z,34.97
2023-11-28T18:58:51.721Z,28.92
2023-11-28T19:01:19.894Z,34.45
2023-11-28T19:03:48.234Z,25.17
2023-11-28T19:06:16.036Z,22.73
2023-11-28T19:08:44.371Z,24.52
2023-11-28T19:11:11.623Z,25.25
2023-11-28T19:13:39.021Z,30.83
2023-11-28T19:16:06.420Z,33.53
2023-11-28T19:18:33.285Z,34.97
2023-11-28T19:21:00.876Z,38.88
2023-11-28T19:23:27.991Z,38.47
2023-11-28T19:25:54.749Z,37.20
2023-11-28T19:28:21.416Z,30.67
2023-11-28T19:30:48.031Z,28.67
2023-11-28T19:33:14.658Z,23.60
2023-11-28T19:35:41.283Z,20.63
2023-11-28T19:38:07.812Z,21.00
2023-11-28T19:40:34.483Z,19.65
2023-11-28T19:43:01.099Z,14.43
2023-11-28T19:45:27.866Z,11.63
2023-11-28T19:47:54.639Z,8.75
2023-11-28T19:50:21.317Z,7.28
2023-11-28T19:52:47.803Z,7.80
2023-11-28T19:55:16.992Z,7.80
2023-11-28T19:57:43.633Z,7.70
2023-11-28T20:00:10.805Z,8.32
2023-11-28T20:02:40.738Z,7.03
2023-11-28T20:05:07.763Z,7.20
2023-11-28T20:07:34.460Z,7.22
2023-11-28T20:10:01.082Z,7.60
2023-11-28T20:12:27.879Z,7.72
2023-11-28T20:14:54.443Z,9.52
2023-11-28T20:17:21.001Z,39.72
2023-11-28T20:19:47.609Z,42.53
2023-11-28T20:22:15.337Z,48.30
2023-11-28T20:24:42.386Z,20.83
2023-11-28T20:27:09.049Z,19.40
2023-11-28T20:29:35.630Z,24.90
2023-11-28T20:32:02.205Z,33.75
2023-11-28T20:34:29.133Z,36.33
2023-11-28T20:37:10.102Z,35.60
2023-11-28T20:39:42.765Z,37.40
2023-11-28T20:42:09.349Z,34.55
2023-11-28T20:44:36.541Z,40.60
2023-11-28T20:47:03.215Z,40.65
2023-11-28T20:49:29.879Z,34.42
2023-11-28T20:51:56.540Z,28.48
2023-11-28T20:54:24.004Z,25.25
2023-11-28T20:56:50.688Z,20.35
2023-11-28T20:59:17.253Z,18.42
2023-11-28T21:01:44.052Z,15.75
2023-11-28T21:04:10.636Z,13.02
2023-11-28T21:06:37.248Z,13.95
2023-11-28T21:09:04.123Z,15.38
2023-11-28T21:11:30.714Z,14.88
2023-11-28T21:13:57.292Z,16.20
2023-11-28T21:16:23.861Z,15.90
2023-11-28T21:18:50.418Z,18.00
2023-11-28T21:21:26.890Z,19.33
2023-11-28T21:23:53.840Z,19.08
2023-11-28T21:26:20.406Z,25.58
2023-11-28T21:28:46.929Z,21.67
2023-11-28T21:31:13.647Z,20.40
2023-11-28T21:33:40.257Z,17.88
2023-11-28T21:36:10.280Z,18.33
2023-11-28T21:38:36.964Z,19.58
2023-11-28T21:41:03.673Z,20.55
2023-11-28T21:43:30.278Z,20.42
2023-11-28T21:45:56.836Z,19.27
2023-11-28T21:48:27.806Z,18.17
2023-11-28T21:50:55.228Z,18.15
2023-11-28T21:53:21.848Z,17.50
2023-11-28T21:55:48.477Z,19.30
2023-11-28T21:58:14.956Z,18.45
2023-11-28T22:00:41.435Z,16.23
2023-11-28T22:03:08.482Z,18.98
2023-11-28T22:05:35.154Z,17.10
2023-11-28T22:08:01.747Z,16.60
2023-11-28T22:10:28.426Z,16.70
2023-11-28T22:12:55.082Z,15.70
2023-11-28T22:15:21.639Z,16.17
2023-11-28T22:17:48.707Z,16.35
2023-11-28T22:20:15.453Z,16.92
2023-11-28T22:22:42.034Z,17.77
2023-11-28T22:25:08.579Z,16.88
2023-11-28T22:27:36.779Z,17.77
2023-11-28T22:30:03.961Z,18.63
2023-11-28T22:32:30.648Z,18.30
2023-11-28T22:34:57.276Z,18.58
2023-11-28T22:37:23.839Z,19.98
2023-11-28T22:39:50.423Z,17.75
2023-11-28T22:42:16.976Z,17.20
2023-11-28T22:44:43.527Z,16.02
2023-11-28T22:47:10.827Z,15.93
2023-11-28T22:49:38.649Z,16.35
2023-11-28T22:52:06.165Z,15.80
2023-11-28T22:54:33.515Z,16.95
2023-11-28T22:57:00.336Z,18.33
2023-11-28T22:59:26.962Z,17.17
2023-11-28T23:01:53.658Z,15.45
2023-11-28T23:04:20.323Z,14.93
2023-11-28T23:06:46.985Z,15.02
2023-11-28T23:09:13.683Z,14.23
2023-11-28T23:11:40.373Z,14.45
2023-11-28T23:14:07.005Z,12.85
2023-11-28T23:16:33.735Z,14.27
2023-11-28T23:19:00.311Z,18.73
2023-11-28T23:21:26.803Z,16.95
2023-11-28T23:23:53.868Z,15.43
2023-11-28T23:26:22.039Z,14.82
2023-11-28T23:28:52.163Z,14.40
2023-11-28T23:31:18.786Z,14.77
2023-11-28T23:33:45.357Z,13.80
2023-11-28T23:36:12.714Z,14.40
2023-11-28T23:38:39.430Z,13.85
2023-11-28T23:41:06.202Z,14.38
2023-11-28T23:43:32.838Z,14.82
2023-11-28T23:45:59.456Z,15.13
2023-11-28T23:48:26.079Z,13.45
2023-11-28T23:50:52.815Z,13.73
2023-11-28T23:53:19.474Z,14.80
2023-11-28T23:55:46.139Z,14.18
2023-11-28T23:58:13.283Z,12.52
